Time;durP1;ratioP1;P1;durP2;ratioP2;P2;SDS_P1;SDS_P2;PMS_P1;PMS_P2;Temp;Humidity;BMP_temperature;BMP_pressure;BME280_temperature;BME280_humidity;BME280_pressure;Samples;Min_cycle;Max_cycle;Signal;HPM_P1;HPM_P2
2021/04/16 06:40:38;;;;;;;16.23;12.25;;;;;;;2.16;89.75;97589.02;1882841;75;28060;-64
2021/04/16 06:43:08;;;;;;;17.92;12.45;;;;;;;2.13;89.53;97589.51;1770021;81;21461;-64
2021/04/16 06:45:37;;;;;;;8.63;7.05;;;;;;;2.19;89.70;97585.87;1814832;77;21365;-64
2021/04/16 06:48:10;;;;;;;7.42;6.00;;;;;;;2.29;89.37;97592.60;1844242;77;20931;-64
2021/04/16 06:50:41;;;;;;;6.62;5.92;;;;;;;2.40;89.29;97600.91;1810930;77;20918;-63
2021/04/16 06:53:40;;;;;;;7.60;6.80;;;;;;;2.52;88.98;97596.30;1811632;79;20986;-62
2021/04/16 06:56:16;;;;;;;7.37;5.92;;;;;;;2.61;89.01;97585.58;1814391;77;20911;-64
2021/04/16 06:59:21;;;;;;;6.83;5.85;;;;;;;2.72;88.60;97587.78;1854701;77;21854;-65
2021/04/16 07:02:02;;;;;;;7.35;6.53;;;;;;;2.82;88.61;97587.09;1864427;77;21013;-64
2021/04/16 07:04:47;;;;;;;6.37;5.08;;;;;;;2.95;88.61;97589.31;1828374;77;20998;-64
2021/04/16 07:07:28;;;;;;;6.72;5.37;;;;;;;3.03;87.49;97587.03;1846885;77;20915;-64
2021/04/16 07:10:08;;;;;;;8.43;6.17;;;;;;;3.07;87.28;97584.66;1864123;77;20927;-63
2021/04/16 07:12:37;;;;;;;6.62;5.28;;;;;;;3.12;87.21;97587.36;1865458;77;21200;-62
2021/04/16 07:15:20;;;;;;;7.33;5.22;;;;;;;3.19;86.95;97580.80;1816773;77;21104;-64
2021/04/16 07:17:52;;;;;;;7.83;5.28;;;;;;;3.26;86.53;97583.23;1816880;77;21037;-67
2021/04/16 07:20:25;;;;;;;5.50;4.58;;;;;;;3.33;86.18;97594.41;1761244;80;20998;-68
2021/04/16 07:22:55;;;;;;;6.03;4.85;;;;;;;3.36;85.86;97592.58;1780745;80;21507;-70
2021/04/16 07:25:50;;;;;;;5.22;4.05;;;;;;;3.36;85.33;97593.91;1794389;80;22018;-68
2021/04/16 07:28:52;;;;;;;5.25;4.75;;;;;;;3.35;85.36;97597.59;1794648;79;21476;-66
2021/04/16 07:31:32;;;;;;;4.92;4.12;;;;;;;3.35;85.11;97597.59;1780421;80;21030;-66
2021/04/16 07:34:01;;;;;;;4.30;3.90;;;;;;;3.38;84.97;97595.77;1753197;80;21021;-68
2021/04/16 07:36:39;;;;;;;4.67;3.70;;;;;;;3.39;84.82;97606.64;1794425;80;21079;-65
2021/04/16 07:39:31;;;;;;;4.45;3.90;;;;;;;3.43;84.71;97607.73;1797279;79;21457;-66
2021/04/16 07:42:15;;;;;;;6.78;4.08;;;;;;;3.47;84.92;97600.86;1810889;78;20991;-67
2021/04/16 07:45:11;;;;;;;4.95;4.10;;;;;;;3.58;84.86;97607.05;1818792;78;20936;-67
2021/04/16 07:47:40;;;;;;;4.92;4.10;;;;;;;3.69;84.56;97596.78;1811833;78;20989;-64
2021/04/16 07:50:14;;;;;;;4.70;3.90;;;;;;;3.80;83.86;97604.53;1817042;78;21181;-63
2021/04/16 07:52:46;;;;;;;4.65;4.03;;;;;;;3.85;83.95;97605.09;1833056;78;21509;-68
2021/04/16 07:55:23;;;;;;;4.45;3.75;;;;;;;3.89;83.69;97613.59;1818696;78;20952;-64
2021/04/16 07:58:19;;;;;;;5.65;4.08;;;;;;;3.91;83.03;97608.83;1836459;77;20991;-66
2021/04/16 08:00:51;;;;;;;4.28;3.70;;;;;;;3.89;83.18;97601.66;1834408;77;20987;-62
2021/04/16 08:03:28;;;;;;;4.90;3.55;;;;;;;3.94;83.46;97603.02;1820132;78;21126;-64
2021/04/16 08:06:06;;;;;;;5.00;4.17;;;;;;;3.95;82.85;97608.61;1798094;79;21317;-66
2021/04/16 08:08:41;;;;;;;5.45;3.80;;;;;;;3.96;83.13;97609.38;1772528;78;20944;-63
2021/04/16 08:11:14;;;;;;;5.05;3.52;;;;;;;3.98;83.09;97609.39;1834454;78;21010;-62
2021/04/16 08:13:53;;;;;;;4.72;4.10;;;;;;;3.99;82.49;97611.00;1742544;80;21143;-70
2021/04/16 08:16:36;;;;;;;4.03;3.58;;;;;;;3.94;82.50;97607.00;1716036;82;21607;-64
2021/04/16 08:19:21;;;;;;;5.83;4.22;;;;;;;3.91;82.74;97616.78;1755686;81;21600;-67
2021/04/16 08:22:03;;;;;;;5.13;3.77;;;;;;;3.90;82.75;97617.84;1756150;81;20994;-64
2021/04/16 08:24:38;;;;;;;4.62;3.60;;;;;;;3.89;82.70;97618.08;1749574;80;21175;-61
2021/04/16 08:27:38;;;;;;;4.83;3.85;;;;;;;3.91;82.81;97627.38;1728704;81;21040;-63
2021/04/16 08:30:51;;;;;;;5.55;3.42;;;;;;;3.94;82.77;97625.55;1745615;80;21481;-62
2021/04/16 08:33:41;;;;;;;5.92;3.45;;;;;;;3.96;82.53;97624.76;1735616;80;21397;-64
2021/04/16 08:36:22;;;;;;;5.87;3.30;;;;;;;3.96;82.78;97624.76;1724991;81;21131;-64
2021/04/16 08:38:58;;;;;;;4.67;3.15;;;;;;;3.98;82.87;97626.62;1723846;83;21194;-65
2021/04/16 08:41:31;;;;;;;4.05;3.00;;;;;;;3.97;82.84;97627.70;1732090;81;21100;-63
2021/04/16 08:44:07;;;;;;;5.42;3.67;;;;;;;3.98;82.78;97617.90;1761210;79;21002;-62
2021/04/16 08:46:42;;;;;;;5.45;3.80;;;;;;;3.99;82.73;97624.77;1752215;80;21204;-63
2021/04/16 08:49:26;;;;;;;4.45;3.60;;;;;;;4.02;82.65;97626.40;1755463;81;21563;-63
2021/04/16 08:52:08;;;;;;;4.62;3.37;;;;;;;4.05;82.47;97633.81;1749450;81;21556;-64
2021/04/16 08:54:36;;;;;;;4.35;3.52;;;;;;;4.05;82.34;97631.16;1758061;80;21588;-63
2021/04/16 08:57:24;;;;;;;7.15;4.45;;;;;;;4.06;82.34;97629.32;1723817;83;21159;-63
2021/04/16 09:00:08;;;;;;;6.08;4.35;;;;;;;4.09;82.47;97630.95;1734037;81;22128;-63
2021/04/16 09:02:46;;;;;;;;;;;;;;;4.17;82.55;97632.84;1737636;80;21218;-64
2021/04/16 09:05:34;;;;;;;5.33;3.85;;;;;;;4.22;82.24;97636.81;1739460;80;20581;-65
2021/04/16 09:08:19;;;;;;;4.47;3.80;;;;;;;4.22;82.32;97640.27;1721244;83;21191;-65
2021/04/16 09:10:57;;;;;;;5.28;3.87;;;;;;;4.28;82.55;97638.45;1726890;80;21151;-62
2021/04/16 09:13:40;;;;;;;4.62;3.40;;;;;;;4.36;82.30;97642.72;1737749;80;21193;-65
2021/04/16 09:16:22;;;;;;;4.67;3.42;;;;;;;4.42;81.88;97647.00;1728197;82;21968;-64
2021/04/16 09:18:54;;;;;;;3.98;2.90;;;;;;;4.48;81.91;97646.48;1715281;83;21525;-64
2021/04/16 09:21:31;;;;;;;3.52;2.95;;;;;;;4.55;81.73;97651.82;1754507;80;20930;-63
2021/04/16 09:24:05;;;;;;;3.75;2.80;;;;;;;4.59;81.37;97653.44;1743127;80;21025;-63
2021/04/16 09:26:55;;;;;;;3.80;2.98;;;;;;;4.53;80.64;97650.48;1727240;81;21366;-69
2021/04/16 09:29:36;;;;;;;3.35;2.75;;;;;;;4.50;80.77;97653.67;1744557;81;21199;-69
2021/04/16 09:32:46;;;;;;;4.33;2.90;;;;;;;4.46;80.76;97657.88;1738610;80;21531;-68
2021/04/16 09:35:30;;;;;;;4.90;3.25;;;;;;;4.39;80.47;97658.64;1715099;83;20989;-66
2021/04/16 09:38:26;;;;;;;5.92;3.52;;;;;;;4.34;80.68;97652.79;1714707;83;21196;-63
2021/04/16 09:41:23;;;;;;;5.33;4.25;;;;;;;4.34;80.57;97679.83;1708257;82;21252;-63
2021/04/16 09:44:20;;;;;;;4.10;3.20;;;;;;;4.30;80.90;97662.84;1724400;80;21575;-63
2021/04/16 09:46:50;;;;;;;5.30;3.83;;;;;;;4.28;80.92;97657.81;1745019;82;21161;-66
2021/04/16 09:49:36;;;;;;;4.87;3.70;;;;;;;4.29;80.85;97670.52;1725974;80;21014;-65
2021/04/16 09:52:35;;;;;;;4.62;3.70;;;;;;;4.30;80.97;97657.02;1715770;83;20930;-65
2021/04/16 09:55:48;;;;;;;4.03;3.30;;;;;;;4.30;81.10;97661.00;1715314;82;21388;-64
2021/04/16 09:58:42;;;;;;;4.65;2.95;;;;;;;4.33;80.91;97659.69;1715230;83;20919;-61
2021/04/16 10:01:17;;;;;;;5.22;3.90;;;;;;;4.36;81.17;97661.28;1718599;82;21553;-64
2021/04/16 10:03:54;;;;;;;3.52;2.83;;;;;;;4.43;81.20;97662.39;1715207;83;20930;-64
2021/04/16 10:06:35;;;;;;;4.08;3.15;;;;;;;4.49;80.67;97665.33;1713921;82;21211;-65
2021/04/16 10:09:26;;;;;;;3.65;2.85;;;;;;;4.48;80.70;97655.23;1719898;82;21377;-64
2021/04/16 10:12:03;;;;;;;3.77;2.77;;;;;;;4.54;80.67;97658.72;1739591;82;21200;-64
2021/04/16 10:14:45;;;;;;;3.10;2.50;;;;;;;4.61;80.59;97662.73;1762170;80;21032;-66
2021/04/16 10:17:21;;;;;;;4.87;2.58;;;;;;;4.58;80.45;97659.79;1795964;79;21156;-67
2021/04/16 10:20:14;;;;;;;4.33;2.70;;;;;;;4.57;80.38;97662.19;1781886;80;21231;-65
2021/04/16 10:22:44;;;;;;;3.85;2.58;;;;;;;4.57;80.32;97655.01;1754902;81;22020;-65
2021/04/16 11:23:12;;;;;;;3.87;2.47;;;;;;;4.80;79.48;97686.95;1747029;82;21381;-65
2021/04/16 12:38:34;;;;;;;3.90;2.67;;;;;;;4.72;77.12;97751.11;1781390;80;21172;-64
2021/04/16 12:40:55;;;;;;;4.27;2.60;;;;;;;4.70;77.11;97741.29;1780805;80;21022;-65
2021/04/16 12:43:23;;;;;;;4.15;2.90;;;;;;;4.71;77.05;97753.51;1756222;80;21388;-66
2021/04/16 12:45:55;;;;;;;4.35;2.95;;;;;;;4.75;77.19;97751.41;1735668;82;21215;-64
2021/04/16 12:48:24;;;;;;;4.53;3.10;;;;;;;4.80;76.88;97742.67;1735529;81;21067;-64
2021/04/16 12:50:53;;;;;;;4.08;3.47;;;;;;;4.84;76.69;97750.38;1773025;81;21469;-66
2021/04/16 12:53:22;;;;;;;3.58;2.95;;;;;;;4.82;76.59;97764.44;1802226;78;20965;-64
2021/04/16 12:55:50;;;;;;;5.75;2.92;;;;;;;4.79;76.70;97750.34;1807460;78;20902;-65
2021/04/16 12:58:33;;;;;;;4.55;3.10;;;;;;;4.78;76.41;97749.55;1784569;79;21329;-64
2021/04/16 13:01:25;;;;;;;4.42;2.80;;;;;;;4.78;76.42;97742.14;1772610;81;20943;-63
